createdAt,value
2018-07-15T00:02:04.865Z,20.80
2018-07-15T00:04:33.352Z,20.90
2018-07-15T00:07:01.790Z,20.90
2018-07-15T00:09:30.272Z,20.90
2018-07-15T00:14:26.883Z,20.90
2018-07-15T00:16:55.331Z,20.90
2018-07-15T00:19:23.810Z,20.90
2018-07-15T00:21:52.295Z,20.90
2018-07-15T00:24:20.764Z,21.00
2018-07-15T00:26:49.440Z,21.10
2018-07-15T00:31:46.095Z,21.10
2018-07-15T00:34:14.624Z,21.10
2018-07-15T00:36:43.058Z,21.10
2018-07-15T00:39:11.552Z,21.00
2018-07-15T00:41:39.996Z,21.00
2018-07-15T00:44:08.471Z,20.90
2018-07-15T00:46:36.937Z,20.90
2018-07-15T00:49:05.387Z,21.00
2018-07-15T00:51:33.854Z,21.00
2018-07-15T00:54:02.330Z,20.90
2018-07-15T00:58:58.991Z,20.80
2018-07-15T01:03:55.577Z,20.60
2018-07-15T01:06:24.055Z,20.60
2018-07-15T01:08:52.496Z,20.50
2018-07-15T01:11:20.973Z,20.60
2018-07-15T01:13:49.518Z,20.40
2018-07-15T01:16:18.015Z,20.40
2018-07-15T01:18:46.468Z,20.30
2018-07-15T01:21:14.996Z,20.30
2018-07-15T01:23:43.428Z,20.20
2018-07-15T01:26:11.892Z,20.10
2018-07-15T01:28:40.330Z,20.00
2018-07-15T01:33:36.948Z,19.70
2018-07-15T01:36:05.437Z,19.60
2018-07-15T01:38:33.892Z,19.60
2018-07-15T01:41:02.384Z,19.60
2018-07-15T01:43:30.833Z,19.60
2018-07-15T01:45:59.297Z,19.70
2018-07-15T01:48:27.752Z,19.70
2018-07-15T01:50:56.220Z,19.70
2018-07-15T01:53:24.647Z,19.70
2018-07-15T01:55:53.109Z,19.60
2018-07-15T01:58:21.567Z,19.50
2018-07-15T02:00:50.036Z,19.50
2018-07-15T02:03:18.472Z,19.20
2018-07-15T02:05:46.931Z,19.20
2018-07-15T02:08:15.369Z,19.10
2018-07-15T02:10:43.816Z,19.00
2018-07-15T02:13:12.272Z,19.10
2018-07-15T02:15:40.781Z,19.10
2018-07-15T02:18:09.231Z,19.10
2018-07-15T02:20:37.681Z,19.10
2018-07-15T02:23:06.288Z,19.00
2018-07-15T02:25:34.766Z,18.90
2018-07-15T02:28:03.253Z,18.80
2018-07-15T02:30:31.699Z,18.80
2018-07-15T02:33:00.195Z,18.90
2018-07-15T02:35:28.659Z,18.90
2018-07-15T02:37:57.121Z,18.80
2018-07-15T02:40:25.584Z,18.80
2018-07-15T02:42:54.045Z,18.90
2018-07-15T02:45:22.495Z,18.90
2018-07-15T02:47:50.957Z,18.80
2018-07-15T02:52:47.556Z,18.90
2018-07-15T02:55:16.001Z,18.80
2018-07-15T02:57:44.506Z,18.80
2018-07-15T03:00:12.985Z,18.70
2018-07-15T03:02:41.470Z,18.60
2018-07-15T03:05:09.944Z,18.60
2018-07-15T03:07:38.407Z,18.60
2018-07-15T03:10:06.879Z,18.60
2018-07-15T03:15:03.469Z,18.70
2018-07-15T03:17:31.951Z,18.80
2018-07-15T03:20:00.391Z,18.70
2018-07-15T03:22:28.839Z,18.80
2018-07-15T03:24:57.284Z,18.80
2018-07-15T03:27:25.797Z,18.80
2018-07-15T03:29:54.243Z,18.70
2018-07-15T03:32:22.688Z,18.70
2018-07-15T03:34:51.119Z,18.70
2018-07-15T03:37:19.628Z,18.70
2018-07-15T03:39:48.121Z,18.70
2018-07-15T03:42:16.561Z,18.60
2018-07-15T03:44:45.053Z,18.70
2018-07-15T03:47:13.520Z,18.70
2018-07-15T03:49:41.976Z,18.70
2018-07-15T03:54:38.551Z,18.50
2018-07-15T03:57:07.057Z,18.40
2018-07-15T03:59:35.556Z,18.50
2018-07-15T04:02:04.053Z,18.60
2018-07-15T04:04:32.528Z,18.50
2018-07-15T04:07:01.013Z,18.50
2018-07-15T04:09:29.471Z,18.70
2018-07-15T04:11:57.903Z,18.90
2018-07-15T04:14:26.378Z,19.10
2018-07-15T04:16:54.827Z,19.20
2018-07-15T04:19:23.377Z,19.20
2018-07-15T04:21:51.920Z,19.20
2018-07-15T04:26:48.532Z,19.60
2018-07-15T04:29:16.993Z,19.40
2018-07-15T04:31:45.435Z,19.50
2018-07-15T04:36:42.021Z,19.60
2018-07-15T04:39:10.785Z,20.00
2018-07-15T04:44:07.949Z,20.30
2018-07-15T04:46:36.560Z,20.40
2018-07-15T04:49:05.225Z,20.50
2018-07-15T04:54:01.827Z,20.70
2018-07-15T04:56:30.329Z,20.50
2018-07-15T04:58:58.833Z,20.90
2018-07-15T05:01:27.280Z,20.70
2018-07-15T05:03:55.736Z,20.60
2018-07-15T05:06:24.212Z,20.60
2018-07-15T05:08:52.693Z,20.60
2018-07-15T05:11:21.219Z,20.80
2018-07-15T05:13:49.692Z,21.00
2018-07-15T05:16:18.141Z,21.00
2018-07-15T05:18:46.620Z,20.90
2018-07-15T05:21:15.084Z,21.20
2018-07-15T05:23:43.523Z,21.30
2018-07-15T05:26:12.008Z,21.30
2018-07-15T05:28:40.464Z,21.80
2018-07-15T05:31:08.923Z,22.00
2018-07-15T05:33:37.381Z,21.80
2018-07-15T05:41:02.273Z,22.30
2018-07-15T05:43:30.716Z,21.90
2018-07-15T05:45:59.183Z,22.20
2018-07-15T05:48:27.648Z,22.50
2018-07-15T05:50:56.112Z,22.00
2018-07-15T05:53:24.567Z,22.60
2018-07-15T05:55:53.023Z,22.70
2018-07-15T05:58:21.492Z,22.50
2018-07-15T06:00:49.971Z,22.30
2018-07-15T06:03:18.435Z,22.30
2018-07-15T06:05:46.908Z,22.20
2018-07-15T06:08:15.371Z,22.00
2018-07-15T06:10:43.930Z,21.90
2018-07-15T06:13:12.359Z,21.90
2018-07-15T06:15:40.832Z,22.20
2018-07-15T06:18:09.389Z,22.10
2018-07-15T06:20:37.936Z,22.30
2018-07-15T06:23:06.615Z,22.50
2018-07-15T06:25:35.120Z,22.60
2018-07-15T06:28:03.567Z,23.20
2018-07-15T06:30:32.012Z,23.10
2018-07-15T06:33:00.459Z,23.10
2018-07-15T06:35:28.929Z,23.30
2018-07-15T06:37:57.372Z,22.80
2018-07-15T06:40:26.174Z,23.00
2018-07-15T06:45:22.926Z,23.00
2018-07-15T06:50:20.097Z,23.50
2018-07-15T06:52:48.970Z,23.80
2018-07-15T06:55:17.807Z,23.80
2018-07-15T06:57:46.624Z,23.70
2018-07-15T07:00:15.477Z,23.60
2018-07-15T07:02:44.286Z,23.50
2018-07-15T07:05:13.174Z,23.60
2018-07-15T07:07:42.107Z,23.70
2018-07-15T07:10:10.859Z,23.60
2018-07-15T07:12:39.956Z,23.40
2018-07-15T07:15:08.785Z,23.10
2018-07-15T07:17:37.432Z,23.20
2018-07-15T07:20:06.450Z,23.10
2018-07-15T07:22:35.275Z,23.20
2018-07-15T07:27:31.977Z,23.50
2018-07-15T07:30:00.427Z,23.60
2018-07-15T07:32:28.904Z,24.00
2018-07-15T07:37:25.512Z,24.50
2018-07-15T07:39:53.988Z,24.90
2018-07-15T07:42:22.515Z,24.90
2018-07-15T07:47:19.088Z,24.60
2018-07-15T07:49:47.536Z,24.80
2018-07-15T07:52:16.071Z,25.10
2018-07-15T07:54:44.540Z,25.30
2018-07-15T07:57:13.055Z,25.30
2018-07-15T07:59:41.500Z,25.20
2018-07-15T08:02:09.963Z,25.20
2018-07-15T08:07:06.597Z,25.00
2018-07-15T08:09:35.053Z,24.70
2018-07-15T08:12:03.561Z,25.00
2018-07-15T08:14:32.012Z,25.20
2018-07-15T08:17:00.487Z,25.30
2018-07-15T08:19:28.929Z,25.10
2018-07-15T08:21:57.364Z,25.20
2018-07-15T08:24:25.836Z,25.10
2018-07-15T08:26:54.292Z,25.20
2018-07-15T08:29:22.791Z,25.20
2018-07-15T08:31:51.226Z,25.20
2018-07-15T08:34:19.669Z,25.40
2018-07-15T08:36:48.116Z,25.20
2018-07-15T08:39:16.600Z,25.40
2018-07-15T08:41:45.053Z,25.20
2018-07-15T08:44:13.514Z,25.80
2018-07-15T08:46:41.957Z,26.10
2018-07-15T08:49:10.440Z,26.30
2018-07-15T08:51:38.878Z,26.20
2018-07-15T08:56:35.476Z,26.10
2018-07-15T08:59:03.935Z,26.30
2018-07-15T09:01:32.392Z,26.30
2018-07-15T09:04:00.873Z,25.90
2018-07-15T09:08:57.479Z,26.50
2018-07-15T09:11:25.943Z,26.90
2018-07-15T09:13:54.407Z,27.30
2018-07-15T09:16:22.838Z,27.20
2018-07-15T09:18:51.349Z,27.30
2018-07-15T09:21:19.793Z,27.60
2018-07-15T09:23:48.317Z,27.40
2018-07-15T09:28:44.920Z,27.50
2018-07-15T09:31:13.407Z,27.40
2018-07-15T09:33:41.901Z,27.50
2018-07-15T09:36:10.391Z,27.30
2018-07-15T09:38:38.862Z,27.30
2018-07-15T09:41:07.365Z,27.30
2018-07-15T09:43:35.863Z,27.40
2018-07-15T09:51:00.620Z,27.20
2018-07-15T09:53:29.099Z,27.40
2018-07-15T09:55:57.591Z,27.50
2018-07-15T09:58:26.076Z,27.40
2018-07-15T10:00:56.064Z,27.90
2018-07-15T10:03:25.323Z,27.90
2018-07-15T10:05:53.807Z,27.40
2018-07-15T10:08:22.756Z,27.50
2018-07-15T10:10:51.237Z,27.60
2018-07-15T10:13:19.763Z,27.70
2018-07-15T10:15:48.391Z,27.50
2018-07-15T10:18:17.147Z,27.40
2018-07-15T10:20:45.671Z,27.50
2018-07-15T10:23:14.177Z,27.60
2018-07-15T10:25:42.665Z,27.70
2018-07-15T10:28:11.194Z,27.90
2018-07-15T10:33:07.852Z,27.70
2018-07-15T10:35:36.287Z,28.00
2018-07-15T10:38:04.770Z,27.80
2018-07-15T10:40:33.304Z,28.30
2018-07-15T10:43:01.751Z,28.20
2018-07-15T10:45:30.214Z,28.00
2018-07-15T10:47:58.660Z,28.30
2018-07-15T10:50:27.211Z,28.30
2018-07-15T10:52:55.760Z,28.20
2018-07-15T10:55:24.232Z,28.00
2018-07-15T10:57:52.739Z,28.10
2018-07-15T11:00:21.195Z,28.20
2018-07-15T11:02:49.689Z,28.20
2018-07-15T11:05:18.159Z,28.20
2018-07-15T11:07:46.616Z,28.30
2018-07-15T11:10:15.096Z,28.40
2018-07-15T11:12:43.591Z,28.10
2018-07-15T11:15:12.036Z,28.20
2018-07-15T11:20:08.837Z,27.90
2018-07-15T11:22:37.372Z,27.90
2018-07-15T11:25:06.008Z,27.90
2018-07-15T11:27:34.507Z,28.00
2018-07-15T11:30:02.983Z,28.00
2018-07-15T11:32:31.465Z,27.90
2018-07-15T11:35:00.026Z,28.10
2018-07-15T11:37:28.573Z,28.00
2018-07-15T11:42:25.201Z,27.90
2018-07-15T11:44:53.664Z,27.80
2018-07-15T11:47:22.165Z,27.70
2018-07-15T11:49:50.637Z,27.80
2018-07-15T11:52:19.183Z,27.70
2018-07-15T11:54:47.635Z,27.70
2018-07-15T11:57:16.121Z,27.70
2018-07-15T12:02:12.832Z,27.60
2018-07-15T12:04:41.663Z,27.40
2018-07-15T12:09:38.360Z,27.30
2018-07-15T12:12:06.871Z,27.20
2018-07-15T12:14:35.485Z,27.20
2018-07-15T12:17:04.045Z,26.80
2018-07-15T12:19:32.553Z,26.90
2018-07-15T12:22:01.081Z,26.80
2018-07-15T12:24:29.605Z,26.80
2018-07-15T12:26:58.145Z,26.40
2018-07-15T12:29:26.652Z,26.50
2018-07-15T12:31:55.091Z,26.60
2018-07-15T12:34:23.669Z,26.40
2018-07-15T12:36:52.140Z,26.10
2018-07-15T12:39:20.631Z,26.10
2018-07-15T12:41:49.076Z,26.40
2018-07-15T12:44:17.584Z,26.20
2018-07-15T12:49:14.196Z,26.00
2018-07-15T12:51:42.714Z,25.80
2018-07-15T12:54:11.186Z,25.90
2018-07-15T12:56:39.644Z,25.90
2018-07-15T12:59:08.124Z,26.00
2018-07-15T13:01:36.572Z,25.80
2018-07-15T13:04:05.052Z,25.90
2018-07-15T13:06:33.524Z,25.90
2018-07-15T13:09:02.045Z,25.80
2018-07-15T13:11:30.564Z,25.90
2018-07-15T13:16:27.196Z,26.10
2018-07-15T13:18:55.741Z,26.10
2018-07-15T13:21:24.222Z,26.40
2018-07-15T13:23:52.703Z,26.50
2018-07-15T13:26:21.211Z,26.40
2018-07-15T13:28:49.706Z,26.20
2018-07-15T13:31:18.164Z,26.20
2018-07-15T13:33:47.089Z,26.70
2018-07-15T13:36:15.624Z,27.00
2018-07-15T13:38:44.075Z,27.00
2018-07-15T13:41:12.584Z,27.00
2018-07-15T13:43:41.032Z,27.20
2018-07-15T13:48:37.628Z,27.50
2018-07-15T13:51:06.181Z,27.50
2018-07-15T13:53:34.648Z,27.30
2018-07-15T13:56:03.143Z,27.50
2018-07-15T13:58:31.600Z,27.30
2018-07-15T14:01:00.095Z,27.00
2018-07-15T14:03:28.547Z,27.30
2018-07-15T14:05:57.005Z,27.30
2018-07-15T14:08:25.443Z,27.60
2018-07-15T14:13:22.062Z,27.70
2018-07-15T14:15:50.544Z,27.70
2018-07-15T14:18:19.024Z,27.90
2018-07-15T14:20:47.496Z,27.70
2018-07-15T14:23:15.993Z,27.50
2018-07-15T14:25:44.455Z,26.90
2018-07-15T14:28:12.914Z,26.80
2018-07-15T14:30:41.380Z,26.80
2018-07-15T14:33:09.828Z,26.90
2018-07-15T14:35:38.287Z,26.80
2018-07-15T14:38:06.791Z,26.40
2018-07-15T14:40:35.281Z,26.70
2018-07-15T14:45:31.959Z,27.20
2018-07-15T14:48:00.399Z,26.80
2018-07-15T14:50:28.872Z,27.30
2018-07-15T14:52:57.378Z,26.90
2018-07-15T14:55:25.847Z,27.60
2018-07-15T14:57:54.353Z,27.30
2018-07-15T15:02:50.959Z,26.70
2018-07-15T15:05:19.423Z,26.90
2018-07-15T15:07:47.939Z,26.90
2018-07-15T15:10:16.408Z,27.00
2018-07-15T15:12:45.161Z,26.90
2018-07-15T15:15:13.924Z,26.80
2018-07-15T15:17:42.392Z,26.80
2018-07-15T15:20:10.867Z,26.60
2018-07-15T15:22:39.376Z,25.30
2018-07-15T15:25:07.876Z,24.10
2018-07-15T15:27:36.363Z,23.60
2018-07-15T15:30:05.515Z,23.70
2018-07-15T15:32:34.028Z,23.70
2018-07-15T15:35:02.504Z,23.50
2018-07-15T15:37:31.016Z,23.30
2018-07-15T15:39:59.463Z,23.10
2018-07-15T15:44:56.238Z,23.00
2018-07-15T15:47:24.750Z,22.90
2018-07-15T15:49:53.276Z,22.70
2018-07-15T15:54:49.963Z,22.60
2018-07-15T15:57:18.505Z,22.70
2018-07-15T15:59:46.997Z,22.70
2018-07-15T16:04:43.690Z,23.00
2018-07-15T16:07:12.204Z,22.90
2018-07-15T16:09:40.707Z,23.00
2018-07-15T16:12:09.266Z,23.00
2018-07-15T16:14:37.745Z,23.00
2018-07-15T16:17:06.300Z,22.90
2018-07-15T16:19:34.885Z,22.60
2018-07-15T16:22:03.402Z,22.80
2018-07-15T16:24:31.915Z,22.80
2018-07-15T16:29:28.560Z,22.90
2018-07-15T16:31:57.049Z,22.90
2018-07-15T16:36:53.877Z,22.90
2018-07-15T16:39:22.385Z,22.90
2018-07-15T16:41:50.889Z,23.00
2018-07-15T16:46:47.541Z,23.20
2018-07-15T16:51:44.257Z,23.40
2018-07-15T16:54:12.794Z,23.50
2018-07-15T16:56:41.433Z,23.60
2018-07-15T16:59:09.988Z,23.60
2018-07-15T17:04:06.727Z,23.70
2018-07-15T17:06:35.254Z,23.70
2018-07-15T17:09:04.812Z,23.80
2018-07-15T17:11:33.296Z,23.70
2018-07-15T17:14:01.827Z,23.70
2018-07-15T17:16:30.359Z,23.60
2018-07-15T17:18:58.856Z,23.50
2018-07-15T17:21:27.355Z,23.50
2018-07-15T17:23:55.825Z,23.50
2018-07-15T17:26:24.319Z,23.20
2018-07-15T17:28:52.780Z,23.30
2018-07-15T17:31:21.224Z,23.30
2018-07-15T17:33:49.775Z,23.40
2018-07-15T17:36:18.707Z,23.70
2018-07-15T17:41:15.300Z,23.80
2018-07-15T17:43:44.155Z,23.80
2018-07-15T17:46:12.652Z,23.70
2018-07-15T17:48:41.096Z,23.60
2018-07-15T17:51:09.534Z,23.50
2018-07-15T17:53:38.027Z,23.50
2018-07-15T17:56:07.343Z,23.50
2018-07-15T17:58:35.815Z,23.50
2018-07-15T18:01:04.292Z,23.50
2018-07-15T18:03:32.779Z,23.60
2018-07-15T18:06:01.243Z,23.70
2018-07-15T18:08:29.699Z,23.60
2018-07-15T18:10:58.176Z,23.60
2018-07-15T18:15:54.779Z,23.70
2018-07-15T18:18:23.229Z,23.60
2018-07-15T18:20:51.692Z,23.50
2018-07-15T18:23:24.993Z,23.50
2018-07-15T18:25:53.448Z,23.60
2018-07-15T18:28:21.893Z,23.70
2018-07-15T18:30:50.394Z,23.60
2018-07-15T18:33:18.989Z,23.70
2018-07-15T18:35:47.432Z,23.70
2018-07-15T18:38:15.899Z,23.30
2018-07-15T18:40:44.392Z,22.60
2018-07-15T18:43:12.836Z,22.40
2018-07-15T18:45:41.304Z,22.10
2018-07-15T18:48:09.760Z,21.80
2018-07-15T18:50:38.245Z,21.80
2018-07-15T18:53:06.885Z,21.60
2018-07-15T18:55:35.525Z,21.10
2018-07-15T18:58:04.028Z,21.00
2018-07-15T19:03:00.743Z,20.80
2018-07-15T19:05:29.259Z,20.60
2018-07-15T19:10:25.976Z,20.50
2018-07-15T19:12:54.605Z,20.50
2018-07-15T19:17:51.428Z,20.50
2018-07-15T19:20:19.926Z,20.40
2018-07-15T19:22:48.420Z,20.30
2018-07-15T19:25:16.900Z,20.30
2018-07-15T19:27:45.431Z,20.30
2018-07-15T19:30:13.962Z,20.20
2018-07-15T19:32:42.472Z,20.30
2018-07-15T19:35:10.972Z,20.30
2018-07-15T19:37:39.464Z,20.30
2018-07-15T19:40:07.986Z,20.10
2018-07-15T19:42:36.511Z,20.20
2018-07-15T19:45:05.153Z,20.30
2018-07-15T19:47:33.640Z,20.30
2018-07-15T19:50:02.102Z,20.30
2018-07-15T19:52:30.663Z,20.30
2018-07-15T19:57:27.372Z,20.30
2018-07-15T20:02:24.068Z,20.40
2018-07-15T20:04:52.526Z,20.50
2018-07-15T20:07:21.043Z,20.40
2018-07-15T20:09:49.548Z,20.40
2018-07-15T20:12:18.245Z,20.50
2018-07-15T20:14:46.793Z,20.50
2018-07-15T20:17:15.420Z,20.50
2018-07-15T20:19:44.302Z,20.40
2018-07-15T20:22:13.060Z,20.50
2018-07-15T20:24:41.557Z,20.60
2018-07-15T20:27:10.165Z,20.70
2018-07-15T20:29:38.636Z,20.60
2018-07-15T20:32:08.448Z,20.60
2018-07-15T20:34:36.971Z,20.50
2018-07-15T20:37:05.513Z,20.50
2018-07-15T20:39:33.998Z,20.60
2018-07-15T20:42:02.695Z,20.60
2018-07-15T20:44:31.192Z,20.40
2018-07-15T20:49:27.819Z,20.30
2018-07-15T20:51:56.356Z,20.30
2018-07-15T20:54:24.911Z,20.30
2018-07-15T20:56:53.396Z,20.30
2018-07-15T21:01:50.022Z,20.30
2018-07-15T21:04:18.525Z,20.50
2018-07-15T21:06:46.975Z,20.50
2018-07-15T21:09:15.487Z,20.50
2018-07-15T21:11:44.012Z,20.50
2018-07-15T21:14:12.519Z,20.50
2018-07-15T21:19:09.144Z,20.60
2018-07-15T21:21:37.591Z,20.70
2018-07-15T21:24:06.264Z,20.50
2018-07-15T21:26:34.733Z,20.60
2018-07-15T21:29:03.211Z,20.50
2018-07-15T21:31:31.732Z,20.50
2018-07-15T21:34:00.176Z,20.40
2018-07-15T21:38:56.808Z,20.20
2018-07-15T21:41:25.276Z,20.30
2018-07-15T21:43:53.844Z,20.20
2018-07-15T21:46:22.311Z,20.30
2018-07-15T21:51:19.013Z,20.10
2018-07-15T21:53:47.461Z,20.20
2018-07-15T21:56:15.945Z,20.20
2018-07-15T21:58:44.433Z,20.30
2018-07-15T22:01:12.899Z,20.50
2018-07-15T22:06:20.710Z,20.50
2018-07-15T22:09:00.435Z,20.40
2018-07-15T22:11:28.929Z,20.40
2018-07-15T22:13:57.431Z,20.40
2018-07-15T22:16:25.912Z,20.40
2018-07-15T22:18:54.389Z,20.40
2018-07-15T22:21:22.844Z,20.50
2018-07-15T22:23:51.377Z,20.50
2018-07-15T22:26:19.860Z,20.60
2018-07-15T22:28:48.335Z,20.60
2018-07-15T22:31:16.830Z,20.50
2018-07-15T22:33:45.319Z,20.60
2018-07-15T22:36:13.790Z,20.70
2018-07-15T22:38:42.252Z,20.70
2018-07-15T22:41:10.729Z,20.70
2018-07-15T22:43:39.179Z,20.70
2018-07-15T22:46:07.685Z,20.70
2018-07-15T22:51:04.354Z,20.50
2018-07-15T22:53:32.837Z,20.40
2018-07-15T22:56:01.319Z,20.30
2018-07-15T22:58:29.948Z,20.20
2018-07-15T23:00:58.459Z,20.10
2018-07-15T23:03:26.933Z,20.10
2018-07-15T23:06:06.700Z,20.10
2018-07-15T23:13:31.475Z,19.90
2018-07-15T23:15:59.952Z,20.00
2018-07-15T23:18:28.416Z,19.90
2018-07-15T23:20:56.896Z,20.00
2018-07-15T23:23:25.343Z,19.90
2018-07-15T23:25:53.809Z,19.90
2018-07-15T23:28:22.260Z,19.80
2018-07-15T23:30:50.717Z,19.80
2018-07-15T23:33:19.154Z,19.80
2018-07-15T23:35:47.631Z,19.80
2018-07-15T23:38:16.098Z,19.70
2018-07-15T23:40:44.572Z,19.70
2018-07-15T23:43:13.071Z,19.70
2018-07-15T23:45:41.563Z,19.70
2018-07-15T23:48:10.041Z,19.60
2018-07-15T23:50:38.528Z,19.30
2018-07-15T23:53:06.980Z,19.00
2018-07-15T23:55:35.488Z,18.90
2018-07-15T23:58:03.987Z,18.70
